Archer, Nebraska
Current Conditions -  °F | °C
As of 6:53 PM on Friday 21 Nov 2014 (Local Time) from KGRI Reporting Station
Scattered Clouds Scattered Clouds  
Wind Chill: 30°   Ceiling: Unl
Heat Index: 35°   Visibility: 10mi
Dew Point: 27°   Wind: 6mph
Humidity: 72%   Direction: 160°SSE
Pressure: 29.98"   Gusts: NA
Location:  41.17°N, 98.14°W
Report Text: KGRI 220053Z 16005KT 10SM SCT013 02/M03 A2998 RMK AO2 SLP176 T00171028
Loading
Personal Weather Stations






























Interactive Weather Map New forecast layout! Learn more

10-Day Weather Forecast

Advertisements
Track Severe Weather on mobile